createdAt,value
2022-09-22T00:02:14.696Z,19.84
2022-09-22T00:04:41.223Z,19.82
2022-09-22T00:07:09.072Z,19.82
2022-09-22T00:09:35.514Z,19.81
2022-09-22T00:12:02.089Z,19.81
2022-09-22T00:14:28.643Z,19.80
2022-09-22T00:16:57.124Z,19.79
2022-09-22T00:19:34.186Z,19.81
2022-09-22T00:22:00.912Z,19.79
2022-09-22T00:24:27.947Z,19.78
2022-09-22T00:26:57.245Z,19.77
2022-09-22T00:29:27.613Z,19.79
2022-09-22T00:31:54.438Z,19.80
2022-09-22T00:34:23.173Z,19.80
2022-09-22T00:36:49.799Z,19.80
2022-09-22T00:39:16.922Z,19.80
2022-09-22T00:41:45.203Z,19.79
2022-09-22T00:44:26.854Z,19.79
2022-09-22T00:47:16.312Z,19.79
2022-09-22T00:50:19.200Z,19.78
2022-09-22T00:52:49.890Z,19.78
2022-09-22T00:55:40.895Z,19.79
2022-09-22T00:58:09.811Z,19.76
2022-09-22T01:00:36.376Z,19.80
2022-09-22T01:03:03.859Z,19.77
2022-09-22T01:05:30.415Z,19.78
2022-09-22T01:07:56.934Z,19.77
2022-09-22T01:10:24.146Z,19.77
2022-09-22T01:13:27.756Z,19.76
2022-09-22T01:16:01.035Z,19.77
2022-09-22T01:18:53.366Z,19.75
2022-09-22T01:21:38.576Z,19.73
2022-09-22T01:24:30.564Z,19.71
2022-09-22T01:27:06.739Z,19.71
2022-09-22T01:29:55.098Z,19.71
2022-09-22T01:33:08.366Z,19.70
2022-09-22T01:35:43.971Z,19.69
2022-09-22T01:38:18.030Z,19.69
2022-09-22T01:40:52.165Z,19.68
2022-09-22T01:43:36.974Z,19.66
2022-09-22T01:46:09.931Z,19.68
2022-09-22T01:48:36.807Z,19.69
2022-09-22T01:51:14.599Z,19.69
2022-09-22T01:53:43.712Z,19.68
2022-09-22T01:56:11.078Z,19.68
2022-09-22T01:58:44.561Z,19.63
2022-09-22T02:01:14.939Z,19.63
2022-09-22T02:03:44.596Z,19.60
2022-09-22T02:06:13.780Z,19.62
2022-09-22T02:08:44.387Z,19.60
2022-09-22T02:11:13.820Z,19.58
2022-09-22T02:13:40.820Z,19.57
2022-09-22T02:16:07.447Z,19.55
2022-09-22T02:18:50.066Z,19.52
2022-09-22T02:21:16.613Z,19.51
2022-09-22T02:23:43.145Z,19.50
2022-09-22T02:26:09.600Z,19.49
2022-09-22T02:28:38.637Z,19.47
2022-09-22T02:31:19.416Z,19.47
2022-09-22T02:33:46.722Z,19.46
2022-09-22T02:36:35.384Z,19.45
2022-09-22T02:39:14.547Z,19.42
2022-09-22T02:42:16.643Z,19.41
2022-09-22T02:45:12.247Z,19.41
2022-09-22T02:48:10.289Z,19.38
2022-09-22T02:50:36.773Z,19.36
2022-09-22T02:53:10.035Z,19.37
2022-09-22T02:55:36.488Z,19.35
2022-09-22T02:58:02.972Z,19.36
2022-09-22T03:00:29.429Z,19.35
2022-09-22T03:02:55.896Z,19.33
2022-09-22T03:05:22.353Z,19.33
2022-09-22T03:07:48.811Z,19.32
2022-09-22T03:10:15.507Z,19.31
2022-09-22T03:13:14.385Z,19.30
2022-09-22T03:15:30.287Z,19.29
2022-09-22T03:17:56.776Z,19.29
2022-09-22T03:20:23.250Z,19.31
2022-09-22T03:22:49.707Z,19.29
2022-09-22T03:25:16.193Z,19.28
2022-09-22T03:27:42.653Z,19.12
2022-09-22T03:30:09.911Z,19.21
2022-09-22T03:32:36.672Z,19.22
2022-09-22T03:35:03.166Z,19.20
2022-09-22T03:37:29.620Z,19.23
2022-09-22T03:39:56.115Z,19.20
2022-09-22T03:42:22.558Z,19.19
2022-09-22T03:44:49.022Z,19.37
2022-09-22T03:47:15.489Z,19.40
2022-09-22T03:49:41.950Z,19.46
2022-09-22T03:52:08.398Z,19.48
2022-09-22T03:54:37.061Z,19.52
2022-09-22T03:57:03.992Z,19.55
2022-09-22T03:59:30.513Z,19.57
2022-09-22T04:01:58.369Z,19.61
2022-09-22T04:04:25.047Z,19.59
2022-09-22T04:06:51.510Z,19.62
2022-09-22T04:09:18.455Z,19.62
2022-09-22T04:11:44.906Z,19.62
2022-09-22T04:14:11.373Z,19.64
2022-09-22T04:16:39.233Z,19.63
2022-09-22T04:19:05.736Z,19.61
2022-09-22T04:21:32.292Z,19.58
2022-09-22T04:23:58.763Z,19.52
2022-09-22T04:26:25.470Z,19.56
2022-09-22T04:28:51.943Z,19.58
2022-09-22T04:31:19.644Z,19.61
2022-09-22T04:33:46.189Z,19.59
2022-09-22T04:36:12.813Z,19.55
2022-09-22T04:38:39.286Z,19.65
2022-09-22T04:41:05.728Z,19.74
2022-09-22T04:43:32.207Z,19.78
2022-09-22T04:45:58.695Z,19.80
2022-09-22T04:48:25.246Z,19.80
2022-09-22T04:50:51.708Z,19.77
2022-09-22T04:53:18.175Z,19.75
2022-09-22T04:55:45.030Z,19.74
2022-09-22T04:58:11.500Z,19.70
2022-09-22T05:00:38.751Z,19.69
2022-09-22T05:03:09.476Z,19.68
2022-09-22T05:05:36.035Z,19.67
2022-09-22T05:08:02.539Z,19.64
2022-09-22T05:10:32.169Z,19.65
2022-09-22T05:12:59.043Z,19.63
2022-09-22T05:15:25.672Z,19.53
2022-09-22T05:17:52.985Z,19.59
2022-09-22T05:20:20.245Z,19.60
2022-09-22T05:22:47.355Z,19.60
2022-09-22T05:25:16.816Z,19.61
2022-09-22T05:27:47.136Z,19.58
2022-09-22T05:30:13.759Z,19.54
2022-09-22T05:32:46.599Z,19.51
2022-09-22T05:35:18.264Z,19.50
2022-09-22T05:37:45.505Z,19.47
2022-09-22T05:40:12.185Z,19.45
2022-09-22T05:42:46.426Z,19.44
2022-09-22T05:45:13.111Z,19.44
2022-09-22T05:47:39.728Z,19.44
2022-09-22T05:50:07.172Z,19.46
2022-09-22T05:52:33.717Z,19.48
2022-09-22T05:55:00.192Z,19.51
2022-09-22T05:57:27.518Z,19.53
2022-09-22T05:59:54.528Z,19.52
2022-09-22T06:02:26.123Z,19.56
2022-09-22T06:04:53.241Z,19.57
2022-09-22T06:07:24.043Z,19.60
2022-09-22T06:09:50.629Z,19.63
2022-09-22T06:12:17.356Z,19.64
2022-09-22T06:14:43.814Z,19.68
2022-09-22T06:17:10.520Z,19.72
2022-09-22T06:19:37.308Z,19.76
2022-09-22T06:22:03.757Z,19.82
2022-09-22T06:24:30.256Z,19.87
2022-09-22T06:26:56.712Z,19.97
2022-09-22T06:29:23.200Z,20.01
2022-09-22T06:31:49.725Z,20.26
2022-09-22T06:34:16.285Z,20.56
2022-09-22T06:36:45.197Z,20.92
2022-09-22T06:39:12.276Z,21.04
2022-09-22T06:41:38.731Z,20.39
2022-09-22T06:44:05.352Z,20.94
2022-09-22T06:46:33.873Z,21.13
2022-09-22T06:49:00.483Z,21.16
2022-09-22T06:51:28.107Z,21.16
2022-09-22T06:53:57.339Z,21.12
2022-09-22T06:56:25.449Z,20.97
2022-09-22T06:59:09.421Z,20.95
2022-09-22T07:01:37.035Z,20.86
2022-09-22T07:04:04.565Z,20.89
2022-09-22T07:06:31.048Z,20.96
2022-09-22T07:08:57.596Z,21.12
2022-09-22T07:11:24.086Z,21.33
2022-09-22T07:13:53.360Z,21.67
2022-09-22T07:16:21.179Z,21.91
2022-09-22T07:18:49.439Z,21.90
2022-09-22T07:21:20.856Z,21.95
2022-09-22T07:23:49.809Z,21.92
2022-09-22T07:26:21.804Z,21.97
2022-09-22T07:28:51.832Z,21.87
2022-09-22T07:31:18.308Z,21.92
2022-09-22T07:33:45.436Z,21.80
2022-09-22T07:36:13.060Z,21.70
2022-09-22T07:38:39.995Z,21.60
2022-09-22T07:41:12.288Z,21.58
2022-09-22T07:43:39.135Z,21.49
2022-09-22T07:46:05.805Z,21.49
2022-09-22T07:48:38.016Z,21.43
2022-09-22T07:51:16.530Z,21.40
2022-09-22T07:53:43.307Z,21.45
2022-09-22T07:56:13.390Z,21.45
2022-09-22T07:58:41.445Z,21.41
2022-09-22T08:01:08.692Z,21.50
2022-09-22T08:03:37.564Z,21.54
2022-09-22T08:06:11.032Z,21.57
2022-09-22T08:08:44.659Z,21.56
2022-09-22T08:11:15.568Z,21.55
2022-09-22T08:13:43.704Z,21.86
2022-09-22T08:16:11.584Z,22.45
2022-09-22T08:18:39.568Z,22.41
2022-09-22T08:21:07.838Z,22.75
2022-09-22T08:23:34.427Z,22.54
2022-09-22T08:26:08.030Z,22.46
2022-09-22T08:28:34.734Z,22.54
2022-09-22T08:31:01.493Z,22.64
2022-09-22T08:33:29.600Z,22.78
2022-09-22T08:35:57.312Z,23.40
2022-09-22T08:38:23.824Z,22.90
2022-09-22T08:41:27.167Z,22.70
2022-09-22T08:44:00.532Z,22.57
2022-09-22T08:46:39.701Z,22.56
2022-09-22T08:49:46.228Z,22.56
2022-09-22T08:52:32.807Z,22.45
2022-09-22T08:54:59.766Z,22.46
2022-09-22T08:57:45.067Z,22.52
2022-09-22T09:00:13.065Z,22.52
2022-09-22T09:02:49.209Z,22.50
2022-09-22T09:05:30.373Z,22.59
2022-09-22T09:08:14.887Z,22.53
2022-09-22T09:10:59.122Z,21.65
2022-09-22T09:13:55.919Z,21.38
2022-09-22T09:16:57.272Z,21.27
2022-09-22T09:19:43.587Z,21.24
2022-09-22T09:22:25.144Z,21.21
2022-09-22T09:27:43.486Z,20.96
2022-09-22T09:30:18.081Z,20.70
2022-09-22T09:32:56.388Z,20.69
2022-09-22T09:35:26.439Z,20.84
2022-09-22T09:37:54.916Z,20.62
2022-09-22T09:40:22.019Z,20.64
2022-09-22T09:43:06.852Z,20.65
2022-09-22T09:46:01.340Z,20.96
2022-09-22T09:48:46.648Z,20.92
2022-09-22T09:51:13.622Z,20.63
2022-09-22T09:53:44.719Z,20.92
2022-09-22T09:56:24.369Z,20.55
2022-09-22T09:59:19.328Z,20.45
2022-09-22T10:01:47.138Z,20.40
2022-09-22T10:04:18.692Z,20.63
2022-09-22T10:06:46.283Z,20.56
2022-09-22T10:09:23.538Z,20.52
2022-09-22T10:12:02.450Z,20.36
2022-09-22T10:14:33.387Z,20.45
2022-09-22T10:17:00.050Z,20.57
2022-09-22T10:19:30.764Z,20.68
2022-09-22T10:22:17.390Z,20.68
2022-09-22T10:24:54.796Z,20.40
2022-09-22T10:27:21.901Z,20.76
2022-09-22T10:29:48.380Z,20.96
2022-09-22T10:32:15.599Z,20.73
2022-09-22T10:37:18.781Z,20.96
2022-09-22T10:39:52.795Z,21.04
2022-09-22T10:42:47.773Z,21.04
2022-09-22T10:45:15.612Z,21.04
2022-09-22T10:47:57.922Z,21.12
2022-09-22T10:50:51.125Z,20.82
2022-09-22T10:53:35.592Z,21.13
2022-09-22T10:56:43.798Z,21.09
2022-09-22T10:59:55.354Z,20.96
2022-09-22T11:02:58.685Z,21.06
2022-09-22T11:05:57.093Z,20.97
2022-09-22T11:08:42.822Z,20.90
2022-09-22T11:11:41.698Z,20.98
2022-09-22T11:14:25.127Z,20.81
2022-09-22T11:16:57.511Z,20.99
2022-09-22T11:19:47.429Z,20.92
2022-09-22T11:22:40.011Z,20.73
2022-09-22T11:25:21.454Z,20.61
2022-09-22T11:28:20.624Z,20.98
2022-09-22T11:30:49.968Z,21.12
2022-09-22T11:33:39.332Z,20.89
2022-09-22T11:36:27.418Z,20.96
2022-09-22T11:39:09.375Z,20.83
2022-09-22T11:42:09.381Z,21.07
2022-09-22T11:45:16.014Z,21.04
2022-09-22T11:48:16.607Z,21.09
2022-09-22T11:51:14.631Z,21.04
2022-09-22T11:54:03.064Z,20.96
2022-09-22T11:56:39.590Z,21.17
2022-09-22T11:59:28.687Z,21.15
2022-09-22T12:01:55.560Z,20.98
2022-09-22T12:04:39.985Z,20.94
2022-09-22T12:07:07.053Z,21.17
2022-09-22T12:09:39.503Z,21.18
2022-09-22T12:12:06.180Z,21.01
2022-09-22T12:14:32.939Z,21.14
2022-09-22T12:17:10.326Z,21.02
2022-09-22T12:19:59.831Z,21.12
2022-09-22T12:22:52.593Z,21.12
2022-09-22T12:25:54.966Z,21.22
2022-09-22T12:28:25.778Z,21.21
2022-09-22T12:31:06.135Z,21.08
2022-09-22T12:33:33.965Z,21.10
2022-09-22T12:36:00.412Z,21.05
2022-09-22T12:38:27.204Z,20.88
2022-09-22T12:40:54.667Z,20.92
2022-09-22T12:43:22.203Z,21.18
2022-09-22T12:45:48.710Z,21.48
2022-09-22T12:48:29.757Z,21.44
2022-09-22T12:51:15.213Z,21.49
2022-09-22T12:53:43.828Z,21.46
2022-09-22T12:56:41.914Z,21.44
2022-09-22T12:59:37.493Z,21.44
2022-09-22T13:02:41.428Z,21.39
2022-09-22T13:05:10.538Z,21.46
2022-09-22T13:07:38.307Z,21.57
2022-09-22T13:10:23.211Z,21.65
2022-09-22T13:13:09.297Z,21.73
2022-09-22T13:15:48.156Z,21.72
2022-09-22T13:18:37.266Z,21.73
2022-09-22T13:21:12.395Z,21.68
2022-09-22T13:23:50.920Z,21.66
2022-09-22T13:26:30.819Z,21.64
2022-09-22T13:29:19.706Z,21.66
2022-09-22T13:31:54.216Z,21.63
2022-09-22T13:34:21.409Z,21.68
2022-09-22T13:36:47.975Z,21.67
2022-09-22T13:39:18.411Z,21.69
2022-09-22T13:41:50.406Z,21.73
2022-09-22T13:44:19.618Z,21.71
2022-09-22T13:46:47.271Z,21.66
2022-09-22T13:49:17.960Z,21.64
2022-09-22T13:51:49.139Z,21.58
2022-09-22T13:54:18.190Z,21.56
2022-09-22T13:56:44.743Z,21.61
2022-09-22T13:59:12.389Z,21.62
2022-09-22T14:01:45.725Z,21.63
2022-09-22T14:04:26.714Z,21.60
2022-09-22T14:07:00.815Z,21.54
2022-09-22T14:09:27.164Z,21.63
2022-09-22T14:11:54.902Z,21.56
2022-09-22T14:14:23.560Z,21.54
2022-09-22T14:16:52.532Z,21.63
2022-09-22T14:19:22.329Z,21.61
2022-09-22T14:21:55.939Z,21.66
2022-09-22T14:24:22.437Z,21.61
2022-09-22T14:27:03.793Z,21.51
2022-09-22T14:29:31.926Z,21.48
2022-09-22T14:32:14.650Z,21.50
2022-09-22T14:34:45.707Z,21.37
2022-09-22T14:37:14.555Z,21.37
2022-09-22T14:39:41.510Z,21.41
2022-09-22T14:42:18.142Z,21.33
2022-09-22T14:44:49.684Z,21.38
2022-09-22T14:47:27.451Z,21.36
2022-09-22T14:50:14.391Z,21.33
2022-09-22T14:52:46.383Z,21.32
2022-09-22T14:55:28.582Z,21.26
2022-09-22T14:57:55.064Z,21.21
2022-09-22T15:00:40.096Z,21.23
2022-09-22T15:03:15.924Z,21.21
2022-09-22T15:05:44.232Z,21.19
2022-09-22T15:08:18.696Z,21.19
2022-09-22T15:10:56.173Z,21.14
2022-09-22T15:13:29.998Z,21.11
2022-09-22T15:15:56.506Z,21.08
2022-09-22T15:18:25.373Z,21.06
2022-09-22T15:21:06.531Z,21.06
2022-09-22T15:23:44.684Z,21.07
2022-09-22T15:26:21.664Z,21.04
2022-09-22T15:28:51.212Z,21.00
2022-09-22T15:31:22.326Z,21.06
2022-09-22T15:33:49.202Z,21.06
2022-09-22T15:36:16.255Z,21.03
2022-09-22T15:38:42.713Z,21.06
2022-09-22T15:41:12.325Z,21.07
2022-09-22T15:43:39.413Z,21.06
2022-09-22T15:46:08.819Z,21.04
2022-09-22T15:48:39.093Z,21.05
2022-09-22T15:51:12.909Z,21.02
2022-09-22T15:53:40.327Z,21.03
2022-09-22T15:56:11.039Z,21.00
2022-09-22T15:58:39.706Z,20.98
2022-09-22T16:01:07.863Z,21.01
2022-09-22T16:03:37.934Z,21.00
2022-09-22T16:06:09.870Z,21.00
2022-09-22T16:08:40.183Z,21.00
2022-09-22T16:11:06.644Z,20.94
2022-09-22T16:13:33.335Z,20.95
2022-09-22T16:16:01.667Z,20.90
2022-09-22T16:18:28.149Z,20.93
2022-09-22T16:21:03.285Z,20.95
2022-09-22T16:23:29.827Z,20.95
2022-09-22T16:25:56.294Z,20.95
2022-09-22T16:28:22.764Z,20.95
2022-09-22T16:30:49.234Z,20.97
2022-09-22T16:33:15.681Z,20.92
2022-09-22T16:35:42.138Z,20.96
2022-09-22T16:38:08.578Z,20.98
2022-09-22T16:40:35.041Z,20.95
2022-09-22T16:43:02.480Z,20.94
2022-09-22T16:45:47.528Z,20.95
2022-09-22T16:48:14.295Z,20.98
2022-09-22T16:50:42.990Z,20.94
2022-09-22T16:53:09.440Z,20.93
2022-09-22T16:55:37.576Z,20.92
2022-09-22T16:58:07.233Z,20.91
2022-09-22T17:00:33.804Z,20.91
2022-09-22T17:03:00.358Z,20.88
2022-09-22T17:05:26.888Z,20.85
2022-09-22T17:07:53.364Z,20.85
2022-09-22T17:10:20.040Z,20.83
2022-09-22T17:12:46.548Z,20.82
2022-09-22T17:15:13.083Z,20.82
2022-09-22T17:17:40.430Z,20.82
2022-09-22T17:20:07.248Z,20.82
2022-09-22T17:22:33.709Z,20.80
2022-09-22T17:25:00.182Z,20.81
2022-09-22T17:27:26.929Z,20.78
2022-09-22T17:29:53.388Z,20.77
2022-09-22T17:32:19.909Z,20.77
2022-09-22T17:34:46.415Z,20.75
2022-09-22T17:37:15.488Z,20.80
2022-09-22T17:39:43.522Z,20.80
2022-09-22T17:42:10.978Z,20.80
2022-09-22T17:44:37.625Z,20.79
2022-09-22T17:47:22.717Z,20.78
2022-09-22T17:50:07.528Z,20.78
2022-09-22T17:52:39.670Z,20.76
2022-09-22T17:55:11.921Z,20.75
2022-09-22T17:57:39.857Z,20.75
2022-09-22T18:00:08.465Z,20.74
2022-09-22T18:02:38.849Z,20.77
2022-09-22T18:05:09.127Z,20.77
2022-09-22T18:07:40.308Z,20.79
2022-09-22T18:10:12.192Z,20.82
2022-09-22T18:12:38.768Z,20.90
2022-09-22T18:15:05.808Z,20.87
2022-09-22T18:17:35.002Z,20.90
2022-09-22T18:20:01.632Z,20.90
2022-09-22T18:22:29.382Z,20.92
2022-09-22T18:24:56.161Z,20.96
2022-09-22T18:27:27.074Z,20.95
2022-09-22T18:29:58.485Z,20.94
2022-09-22T18:32:26.499Z,20.95
2022-09-22T18:34:53.879Z,20.95
2022-09-22T18:37:21.319Z,20.94
2022-09-22T18:39:50.183Z,20.95
2022-09-22T18:42:22.678Z,20.93
2022-09-22T18:44:49.170Z,20.93
2022-09-22T18:47:18.463Z,20.91
2022-09-22T18:49:48.057Z,20.91
2022-09-22T18:52:16.089Z,20.95
2022-09-22T18:54:45.642Z,20.96
2022-09-22T18:57:15.395Z,20.93
2022-09-22T18:59:41.964Z,20.96
2022-09-22T19:02:11.874Z,20.93
2022-09-22T19:04:38.877Z,20.90
2022-09-22T19:07:23.947Z,20.89
2022-09-22T19:09:52.359Z,20.88
2022-09-22T19:12:20.337Z,20.88
2022-09-22T19:14:48.105Z,20.88
2022-09-22T19:17:17.178Z,20.88
2022-09-22T19:19:49.754Z,20.88
2022-09-22T19:22:16.243Z,20.87
2022-09-22T19:24:44.766Z,20.88
2022-09-22T19:27:11.987Z,20.91
2022-09-22T19:29:38.460Z,20.93
2022-09-22T19:32:05.159Z,21.08
2022-09-22T19:34:31.711Z,21.24
2022-09-22T19:36:58.275Z,21.40
2022-09-22T19:39:24.880Z,21.49
2022-09-22T19:41:52.368Z,21.48
2022-09-22T19:44:20.208Z,21.46
2022-09-22T19:46:47.550Z,21.47
2022-09-22T19:49:14.288Z,21.50
2022-09-22T19:51:41.872Z,21.53
2022-09-22T19:54:08.859Z,21.56
2022-09-22T19:56:35.550Z,21.55
2022-09-22T19:59:02.469Z,21.51
2022-09-22T20:01:33.845Z,21.48
2022-09-22T20:04:00.429Z,21.48
2022-09-22T20:06:27.055Z,21.48
2022-09-22T20:09:02.517Z,21.45
2022-09-22T20:11:39.907Z,21.42
2022-09-22T20:14:22.554Z,21.39
2022-09-22T20:16:53.858Z,21.31
2022-09-22T20:19:23.901Z,21.35
2022-09-22T20:21:51.372Z,21.37
2022-09-22T20:24:19.646Z,21.36
2022-09-22T20:26:46.182Z,21.33
2022-09-22T20:29:13.339Z,21.33
2022-09-22T20:31:39.838Z,21.35
2022-09-22T20:34:06.551Z,21.35
2022-09-22T20:36:36.777Z,21.31
2022-09-22T20:39:04.321Z,21.30
2022-09-22T20:41:31.011Z,21.29
2022-09-22T20:43:58.368Z,21.27
2022-09-22T20:46:24.849Z,21.27
2022-09-22T20:48:53.714Z,21.25
2022-09-22T20:51:20.184Z,21.25
2022-09-22T20:53:47.170Z,21.23
2022-09-22T20:56:14.289Z,21.23
2022-09-22T20:58:42.508Z,21.24
2022-09-22T21:01:10.394Z,21.24
2022-09-22T21:03:38.083Z,21.23
2022-09-22T21:06:05.850Z,21.22
2022-09-22T21:08:50.903Z,21.19
2022-09-22T21:11:18.613Z,21.19
2022-09-22T21:13:45.103Z,21.21
2022-09-22T21:16:13.661Z,21.18
2022-09-22T21:18:40.195Z,21.16
2022-09-22T21:21:06.741Z,21.19
2022-09-22T21:23:33.223Z,21.19
2022-09-22T21:26:01.321Z,21.17
2022-09-22T21:28:28.082Z,21.20
2022-09-22T21:30:56.781Z,21.19
2022-09-22T21:33:23.823Z,21.19
2022-09-22T21:36:00.901Z,21.17
2022-09-22T21:38:27.947Z,21.16
2022-09-22T21:41:01.117Z,21.16
2022-09-22T21:43:28.031Z,21.14
2022-09-22T21:46:04.209Z,21.14
2022-09-22T21:48:31.829Z,21.14
2022-09-22T21:51:02.660Z,21.14
2022-09-22T21:53:29.768Z,21.13
2022-09-22T21:56:04.128Z,21.12
2022-09-22T21:58:32.748Z,21.14
2022-09-22T22:01:01.060Z,21.08
2022-09-22T22:03:30.420Z,21.09
2022-09-22T22:06:08.061Z,21.08
2022-09-22T22:08:37.885Z,21.06
2022-09-22T22:11:10.662Z,21.07
2022-09-22T22:13:38.672Z,21.03
2022-09-22T22:16:07.965Z,21.03
2022-09-22T22:18:35.168Z,21.08
2022-09-22T22:21:04.212Z,21.10
2022-09-22T22:23:38.614Z,21.09
2022-09-22T22:26:08.722Z,21.09
2022-09-22T22:28:35.425Z,21.04
2022-09-22T22:31:06.596Z,21.03
2022-09-22T22:33:36.818Z,21.01
2022-09-22T22:36:03.925Z,20.99
2022-09-22T22:38:33.168Z,21.00
2022-09-22T22:41:07.392Z,20.97
2022-09-22T22:43:33.934Z,20.95
2022-09-22T22:46:00.735Z,20.92
2022-09-22T22:48:27.365Z,20.93
2022-09-22T22:50:54.358Z,20.93
2022-09-22T22:53:20.862Z,20.93
2022-09-22T22:56:00.872Z,20.90
2022-09-22T22:58:32.245Z,20.92
2022-09-22T23:01:03.072Z,20.91
2022-09-22T23:03:29.851Z,20.91
2022-09-22T23:05:57.570Z,20.88
2022-09-22T23:08:24.294Z,20.87
2022-09-22T23:10:50.774Z,20.86
2022-09-22T23:13:19.202Z,20.90
2022-09-22T23:15:45.701Z,20.84
2022-09-22T23:18:12.217Z,20.82
2022-09-22T23:20:38.689Z,20.83
2022-09-22T23:23:05.190Z,20.81
2022-09-22T23:25:33.584Z,20.81
2022-09-22T23:28:01.910Z,20.80
2022-09-22T23:30:28.822Z,20.79
2022-09-22T23:32:57.083Z,20.77
2022-09-22T23:35:23.556Z,20.76
2022-09-22T23:37:50.853Z,20.75
2022-09-22T23:40:17.368Z,20.75
2022-09-22T23:42:44.365Z,20.72
2022-09-22T23:45:10.854Z,20.71
2022-09-22T23:47:37.392Z,20.68
2022-09-22T23:50:03.959Z,20.68
2022-09-22T23:52:31.378Z,20.67
2022-09-22T23:54:58.428Z,20.64
2022-09-22T23:57:24.877Z,20.62
2022-09-22T23:59:51.347Z,20.65
